createdAt,value
2018-07-21T00:03:46.029Z,5.23
2018-07-21T00:07:49.288Z,5.30
2018-07-21T00:11:52.865Z,5.50
2018-07-21T00:15:56.117Z,5.30
2018-07-21T00:19:59.523Z,5.50
2018-07-21T00:24:03.005Z,5.43
2018-07-21T00:28:06.270Z,5.80
2018-07-21T00:32:09.552Z,6.37
2018-07-21T00:36:12.851Z,6.20
2018-07-21T00:40:16.082Z,5.73
2018-07-21T00:44:19.350Z,5.97
2018-07-21T00:48:22.591Z,0.00
2018-07-21T00:52:25.846Z,0.00
2018-07-21T00:56:29.133Z,0.10
2018-07-21T01:00:32.379Z,0.00
2018-07-21T01:04:35.666Z,0.10
2018-07-21T01:08:38.902Z,0.00
2018-07-21T01:12:42.664Z,0.00
2018-07-21T01:16:45.918Z,0.30
2018-07-21T01:20:49.261Z,0.00
2018-07-21T01:24:52.507Z,0.00
2018-07-21T01:29:02.465Z,0.00
2018-07-21T01:33:05.731Z,0.00
2018-07-21T01:37:08.984Z,0.00
2018-07-21T01:41:12.269Z,0.00
2018-07-21T01:45:15.549Z,0.00
2018-07-21T01:49:18.785Z,0.20
2018-07-21T01:53:22.055Z,0.40
2018-07-21T01:57:25.373Z,0.00
2018-07-21T02:01:28.741Z,0.00
2018-07-21T02:05:32.011Z,0.00
2018-07-21T02:09:35.228Z,0.20
2018-07-21T02:13:38.473Z,0.77
2018-07-21T02:17:41.777Z,0.10
2018-07-21T02:21:45.014Z,0.00
2018-07-21T02:25:48.270Z,0.00
2018-07-21T02:29:51.552Z,0.20
2018-07-21T02:33:54.835Z,0.10
2018-07-21T02:37:58.116Z,0.33
2018-07-21T02:42:01.078Z,0.83
2018-07-21T02:46:04.543Z,1.17
2018-07-21T02:50:07.895Z,0.20
2018-07-21T02:54:11.149Z,0.10
2018-07-21T02:58:14.406Z,0.10
2018-07-21T03:02:17.683Z,0.00
2018-07-21T03:06:20.951Z,0.00
2018-07-21T03:10:24.229Z,0.00
2018-07-21T03:14:27.490Z,0.00
2018-07-21T03:18:30.743Z,0.00
2018-07-21T03:22:33.999Z,0.00
2018-07-21T03:26:37.244Z,0.00
2018-07-21T03:30:41.970Z,0.00
2018-07-21T03:34:45.434Z,0.20
2018-07-21T03:38:50.489Z,0.00
2018-07-21T03:42:53.798Z,0.00
2018-07-21T03:46:57.049Z,0.00
2018-07-21T03:51:00.302Z,0.70
2018-07-21T03:55:03.608Z,0.00
2018-07-21T03:59:06.926Z,0.10
2018-07-21T04:03:10.186Z,0.00
2018-07-21T04:07:13.426Z,0.00
2018-07-21T04:11:16.737Z,0.03
2018-07-21T04:15:19.997Z,0.10
2018-07-21T04:19:23.302Z,1.20
2018-07-21T04:23:26.573Z,0.00
2018-07-21T04:27:29.857Z,0.00
2018-07-21T04:31:33.165Z,0.00
2018-07-21T04:35:36.418Z,0.00
2018-07-21T04:39:39.681Z,0.00
2018-07-21T04:43:42.940Z,0.00
2018-07-21T04:47:46.199Z,0.00
2018-07-21T04:51:49.480Z,0.30
2018-07-21T04:55:52.718Z,0.10
2018-07-21T04:59:55.997Z,0.00
2018-07-21T05:03:59.268Z,0.00
2018-07-21T05:08:02.797Z,0.00
2018-07-21T05:12:06.064Z,0.00
2018-07-21T05:16:09.330Z,0.00
2018-07-21T05:20:12.647Z,0.00
2018-07-21T05:24:15.841Z,0.00
2018-07-21T05:28:19.109Z,3.20
2018-07-21T05:32:22.442Z,0.00
2018-07-21T05:36:25.727Z,0.10
2018-07-21T05:40:28.975Z,0.27
2018-07-21T05:44:32.234Z,0.10
2018-07-21T05:48:35.639Z,0.00
2018-07-21T05:52:38.905Z,0.10
2018-07-21T05:56:42.148Z,0.00
2018-07-21T06:00:45.409Z,0.10
2018-07-21T06:04:48.665Z,0.30
2018-07-21T06:08:51.970Z,0.40
2018-07-21T06:12:56.091Z,0.00
2018-07-21T06:16:59.406Z,0.10
2018-07-21T06:21:02.637Z,0.00
2018-07-21T06:25:06.017Z,0.00
2018-07-21T06:29:09.282Z,0.10
2018-07-21T06:33:12.519Z,0.00
2018-07-21T06:37:15.778Z,0.40
2018-07-21T06:41:19.102Z,1.20
2018-07-21T06:45:22.384Z,0.13
2018-07-21T06:49:25.706Z,0.00
2018-07-21T06:53:28.902Z,0.47
2018-07-21T06:57:32.175Z,0.00
2018-07-21T07:01:35.429Z,0.00
2018-07-21T07:05:38.721Z,0.00
2018-07-21T07:09:42.034Z,0.27
2018-07-21T07:13:45.285Z,0.00
2018-07-21T07:17:48.521Z,0.00
2018-07-21T07:21:51.818Z,0.00
2018-07-21T07:25:55.074Z,0.00
2018-07-21T07:29:58.335Z,8.28
2018-07-21T07:34:01.601Z,4.45
2018-07-21T07:38:04.894Z,6.97
2018-07-21T07:42:07.906Z,9.48
2018-07-21T07:46:11.134Z,9.28
2018-07-21T07:50:14.534Z,10.38
2018-07-21T07:54:17.774Z,9.88
2018-07-21T07:58:21.037Z,10.45
2018-07-21T08:02:24.318Z,10.15
2018-07-21T08:06:27.565Z,10.00
2018-07-21T08:10:30.849Z,9.28
2018-07-21T08:14:34.144Z,9.70
2018-07-21T08:18:37.394Z,10.20
2018-07-21T08:22:40.706Z,10.88
2018-07-21T08:26:43.998Z,9.80
2018-07-21T08:30:47.742Z,10.72
2018-07-21T08:34:51.202Z,10.28
2018-07-21T08:38:54.449Z,11.25
2018-07-21T08:42:57.781Z,10.38
2018-07-21T08:47:01.131Z,13.00
2018-07-21T08:51:04.450Z,12.45
2018-07-21T08:55:07.738Z,12.03
2018-07-21T08:59:11.009Z,11.20
2018-07-21T09:03:14.263Z,12.00
2018-07-21T09:07:17.571Z,11.60
2018-07-21T09:11:21.723Z,10.82
2018-07-21T09:15:24.969Z,11.35
2018-07-21T09:19:28.224Z,11.15
2018-07-21T09:23:31.486Z,10.63
2018-07-21T09:27:34.729Z,12.00
2018-07-21T09:31:37.993Z,10.25
2018-07-21T09:35:41.248Z,11.60
2018-07-21T09:39:44.929Z,11.57
2018-07-21T09:43:48.353Z,11.57
2018-07-21T09:47:54.205Z,11.50
2018-07-21T09:51:57.525Z,10.48
2018-07-21T09:56:00.855Z,9.43
2018-07-21T10:00:06.845Z,9.38
2018-07-21T10:04:10.906Z,10.15
2018-07-21T10:08:14.173Z,9.53
2018-07-21T10:12:17.446Z,9.38
2018-07-21T10:16:20.692Z,9.45
2018-07-21T10:20:24.087Z,9.65
2018-07-21T10:24:32.619Z,8.58
2018-07-21T10:28:41.371Z,9.25
2018-07-21T10:32:44.627Z,8.53
2018-07-21T10:36:48.114Z,7.97
2018-07-21T10:40:51.995Z,7.22
2018-07-21T10:44:55.233Z,7.70
2018-07-21T10:48:58.490Z,6.45
2018-07-21T10:53:01.785Z,7.05
2018-07-21T10:57:05.019Z,7.53
2018-07-21T11:01:08.274Z,8.85
2018-07-21T11:05:11.556Z,6.22
2018-07-21T11:09:14.802Z,7.17
2018-07-21T11:13:18.049Z,8.35
2018-07-21T11:17:21.316Z,8.23
2018-07-21T11:21:24.571Z,8.00
2018-07-21T11:25:27.796Z,7.65
2018-07-21T11:29:31.243Z,9.00
2018-07-21T11:33:34.526Z,8.43
2018-07-21T11:37:37.770Z,7.67
2018-07-21T11:41:41.014Z,8.40
2018-07-21T11:45:44.332Z,7.30
2018-07-21T11:49:50.976Z,6.78
2018-07-21T11:53:54.325Z,7.08
2018-07-21T11:57:58.408Z,7.22
2018-07-21T12:02:01.691Z,7.05
2018-07-21T12:06:04.951Z,7.70
2018-07-21T12:10:08.215Z,7.45
2018-07-21T12:14:11.449Z,6.90
2018-07-21T12:18:14.761Z,6.87
2018-07-21T12:22:18.041Z,7.53
2018-07-21T12:26:21.298Z,6.75
2018-07-21T12:30:24.627Z,6.35
2018-07-21T12:34:27.901Z,7.03
2018-07-21T12:38:31.170Z,6.15
2018-07-21T12:42:34.458Z,7.62
2018-07-21T12:46:37.752Z,6.97
2018-07-21T12:50:41.169Z,6.50
2018-07-21T12:54:44.770Z,7.40
2018-07-21T12:58:48.014Z,6.87
2018-07-21T13:02:51.270Z,7.45
2018-07-21T13:06:54.503Z,7.70
2018-07-21T13:10:57.784Z,7.08
2018-07-21T13:15:01.050Z,7.10
2018-07-21T13:19:05.812Z,7.37
2018-07-21T13:23:09.193Z,6.92
2018-07-21T13:27:12.713Z,6.85
2018-07-21T13:31:16.031Z,6.85
2018-07-21T13:35:19.859Z,8.25
2018-07-21T13:39:23.870Z,7.55
2018-07-21T13:43:27.909Z,8.13
2018-07-21T13:47:32.265Z,7.42
2018-07-21T13:51:35.558Z,6.97
2018-07-21T13:55:39.133Z,8.15
2018-07-21T13:59:43.225Z,6.60
2018-07-21T14:03:46.601Z,6.40
2018-07-21T14:07:50.858Z,7.08
2018-07-21T14:11:55.752Z,6.70
2018-07-21T14:16:00.565Z,6.50
2018-07-21T14:20:04.231Z,6.97
2018-07-21T14:24:07.481Z,6.15
2018-07-21T14:28:10.734Z,6.03
2018-07-21T14:32:13.995Z,6.50
2018-07-21T14:36:17.358Z,6.30
2018-07-21T14:40:20.525Z,6.25
2018-07-21T14:44:23.783Z,5.87
2018-07-21T14:48:27.042Z,5.78
2018-07-21T14:52:30.305Z,5.97
2018-07-21T14:56:33.590Z,5.92
2018-07-21T15:00:36.882Z,6.03
2018-07-21T15:04:40.122Z,5.55
2018-07-21T15:08:43.393Z,5.60
2018-07-21T15:12:46.637Z,5.70
2018-07-21T15:16:49.890Z,5.20
2018-07-21T15:20:53.126Z,5.55
2018-07-21T15:24:56.496Z,5.30
2018-07-21T15:28:59.469Z,5.22
2018-07-21T15:33:02.742Z,4.90
2018-07-21T15:37:06.270Z,5.10
2018-07-21T15:41:09.549Z,5.17
2018-07-21T15:45:14.133Z,4.75
2018-07-21T15:49:17.629Z,4.72
2018-07-21T15:53:20.889Z,4.80
2018-07-21T15:57:24.141Z,5.12
2018-07-21T16:01:27.483Z,4.70
2018-07-21T16:05:30.761Z,4.70
2018-07-21T16:09:34.070Z,5.03
2018-07-21T16:13:37.267Z,4.75
2018-07-21T16:17:40.518Z,5.25
2018-07-21T16:21:43.767Z,5.97
2018-07-21T16:25:47.018Z,5.78
2018-07-21T16:29:50.276Z,6.50
2018-07-21T16:33:53.538Z,5.97
2018-07-21T16:37:56.809Z,6.22
2018-07-21T16:42:00.803Z,5.87
2018-07-21T16:46:04.077Z,6.00
2018-07-21T16:50:07.394Z,5.70
2018-07-21T16:54:10.622Z,5.33
2018-07-21T16:58:13.877Z,5.33
2018-07-21T17:02:18.180Z,4.85
2018-07-21T17:06:21.430Z,4.53
2018-07-21T17:10:24.805Z,5.35
2018-07-21T17:14:29.065Z,4.95
2018-07-21T17:18:32.302Z,5.12
2018-07-21T17:22:35.563Z,5.60
2018-07-21T17:26:38.814Z,5.90
2018-07-21T17:30:42.079Z,6.35
2018-07-21T17:34:45.317Z,6.75
2018-07-21T17:38:48.570Z,7.85
2018-07-21T17:42:52.054Z,8.05
2018-07-21T17:46:55.320Z,8.60
2018-07-21T17:50:58.563Z,9.23
2018-07-21T17:55:01.817Z,8.05
2018-07-21T17:59:05.080Z,8.33
2018-07-21T18:03:14.710Z,8.48
2018-07-21T18:07:18.029Z,8.60
2018-07-21T18:11:21.266Z,9.60
2018-07-21T18:15:24.546Z,8.33
2018-07-21T18:19:27.800Z,9.13
2018-07-21T18:23:31.183Z,9.38
2018-07-21T18:27:34.562Z,8.90
2018-07-21T18:31:37.847Z,8.45
2018-07-21T18:35:41.142Z,8.63
2018-07-21T18:39:44.510Z,9.78
2018-07-21T18:43:47.714Z,11.83
2018-07-21T18:47:50.966Z,8.43
2018-07-21T18:51:54.208Z,9.15
2018-07-21T18:55:57.469Z,8.98
2018-07-21T19:00:00.755Z,9.43
2018-07-21T19:04:04.019Z,9.18
2018-07-21T19:08:07.291Z,10.50
2018-07-21T19:12:22.579Z,10.82
2018-07-21T19:16:37.425Z,9.38
2018-07-21T19:20:46.119Z,8.58
2018-07-21T19:24:49.388Z,8.28
2018-07-21T19:28:52.903Z,8.00
2018-07-21T19:32:58.786Z,8.78
2018-07-21T19:37:02.054Z,8.48
2018-07-21T19:42:13.466Z,9.10
2018-07-21T19:46:16.739Z,9.03
2018-07-21T19:50:19.988Z,9.30
2018-07-21T19:54:23.243Z,9.18
2018-07-21T19:58:26.486Z,11.25
2018-07-21T20:02:29.811Z,10.35
2018-07-21T20:06:33.321Z,9.70
2018-07-21T20:10:36.586Z,9.38
2018-07-21T20:14:39.833Z,10.68
2018-07-21T20:18:43.127Z,10.08
2018-07-21T20:22:46.385Z,8.98
2018-07-21T20:26:49.725Z,10.03
2018-07-21T20:30:53.026Z,9.78
2018-07-21T20:34:56.284Z,9.30
2018-07-21T20:38:59.544Z,8.40
2018-07-21T20:43:02.873Z,9.73
2018-07-21T20:47:06.173Z,9.50
2018-07-21T20:51:09.487Z,10.03
2018-07-21T20:55:12.753Z,10.55
2018-07-21T20:59:16.005Z,13.85
2018-07-21T21:03:19.258Z,11.12
2018-07-21T21:07:22.530Z,18.32
2018-07-21T21:11:25.783Z,11.18
2018-07-21T21:15:29.058Z,10.08
2018-07-21T21:19:32.310Z,10.90
2018-07-21T21:23:35.566Z,11.33
2018-07-21T21:27:38.810Z,11.50
2018-07-21T21:31:42.062Z,9.83
2018-07-21T21:35:45.304Z,10.45
2018-07-21T21:39:48.548Z,10.77
2018-07-21T21:43:51.814Z,11.23
2018-07-21T21:47:55.107Z,11.83
2018-07-21T21:51:58.352Z,12.23
2018-07-21T21:56:01.603Z,10.58
2018-07-21T22:00:08.463Z,11.57
2018-07-21T22:04:11.735Z,9.33
2018-07-21T22:08:14.939Z,12.10
2018-07-21T22:12:18.206Z,12.77
2018-07-21T22:16:21.474Z,12.37
2018-07-21T22:20:24.476Z,12.07
2018-07-21T22:24:27.718Z,12.67
2018-07-21T22:28:30.982Z,13.33
2018-07-21T22:32:34.230Z,12.30
2018-07-21T22:36:37.494Z,12.23
2018-07-21T22:40:40.745Z,9.43
2018-07-21T22:44:43.986Z,9.17
2018-07-21T22:48:47.263Z,11.60
2018-07-21T22:52:50.540Z,8.93
2018-07-21T22:56:53.844Z,11.03
2018-07-21T23:00:57.086Z,6.60
2018-07-21T23:05:00.373Z,12.17
2018-07-21T23:09:04.648Z,12.07
2018-07-21T23:13:08.155Z,11.97
2018-07-21T23:17:11.469Z,9.15
2018-07-21T23:21:14.749Z,11.80
2018-07-21T23:25:18.018Z,10.63
2018-07-21T23:29:21.387Z,10.50
2018-07-21T23:33:24.638Z,2.20
2018-07-21T23:37:27.889Z,10.10
2018-07-21T23:41:31.205Z,12.23
2018-07-21T23:45:34.499Z,0.00
2018-07-21T23:49:37.731Z,0.00
2018-07-21T23:53:40.696Z,0.00
2018-07-21T23:57:43.959Z,0.00
